sensor_id;sensor_type;location;lat;lon;timestamp;P1;durP1;ratioP1;P2;durP2;ratioP2
4089;SDS011;2059;48.538;12.146;2023-06-22T00:02:51;5.67;;;5.27;;
4089;SDS011;2059;48.538;12.146;2023-06-22T00:07:53;6.97;;;6.37;;
4089;SDS011;2059;48.538;12.146;2023-06-22T00:12:56;6.23;;;5.83;;
4089;SDS011;2059;48.538;12.146;2023-06-22T00:17:58;2.97;;;2.77;;
4089;SDS011;2059;48.538;12.146;2023-06-22T00:23:00;3.20;;;2.90;;
4089;SDS011;2059;48.538;12.146;2023-06-22T00:28:04;3.10;;;2.80;;
4089;SDS011;2059;48.538;12.146;2023-06-22T00:33:07;3.23;;;3.03;;
4089;SDS011;2059;48.538;12.146;2023-06-22T00:38:09;3.13;;;2.80;;
4089;SDS011;2059;48.538;12.146;2023-06-22T00:43:12;2.97;;;2.77;;
4089;SDS011;2059;48.538;12.146;2023-06-22T00:48:14;3.40;;;3.20;;
4089;SDS011;2059;48.538;12.146;2023-06-22T00:53:16;3.13;;;2.93;;
4089;SDS011;2059;48.538;12.146;2023-06-22T00:58:19;3.23;;;2.90;;
4089;SDS011;2059;48.538;12.146;2023-06-22T01:03:21;3.70;;;3.50;;
4089;SDS011;2059;48.538;12.146;2023-06-22T01:08:26;3.57;;;3.30;;
4089;SDS011;2059;48.538;12.146;2023-06-22T01:13:40;4.53;;;4.13;;
4089;SDS011;2059;48.538;12.146;2023-06-22T01:18:46;3.70;;;3.40;;
4089;SDS011;2059;48.538;12.146;2023-06-22T01:23:54;3.60;;;3.30;;
4089;SDS011;2059;48.538;12.146;2023-06-22T01:29:04;6.73;;;5.47;;
4089;SDS011;2059;48.538;12.146;2023-06-22T01:34:08;6.73;;;6.23;;
4089;SDS011;2059;48.538;12.146;2023-06-22T01:39:10;7.27;;;6.67;;
4089;SDS011;2059;48.538;12.146;2023-06-22T01:44:15;4.80;;;4.40;;
4089;SDS011;2059;48.538;12.146;2023-06-22T01:49:17;4.13;;;3.73;;
4089;SDS011;2059;48.538;12.146;2023-06-22T01:54:19;5.23;;;4.67;;
4089;SDS011;2059;48.538;12.146;2023-06-22T01:59:23;5.87;;;5.37;;
4089;SDS011;2059;48.538;12.146;2023-06-22T02:04:31;4.10;;;3.80;;
4089;SDS011;2059;48.538;12.146;2023-06-22T02:09:36;6.23;;;5.83;;
4089;SDS011;2059;48.538;12.146;2023-06-22T02:14:44;5.90;;;5.47;;
4089;SDS011;2059;48.538;12.146;2023-06-22T02:19:47;5.50;;;5.20;;
4089;SDS011;2059;48.538;12.146;2023-06-22T02:24:49;5.90;;;5.60;;
4089;SDS011;2059;48.538;12.146;2023-06-22T02:29:52;6.60;;;6.10;;
4089;SDS011;2059;48.538;12.146;2023-06-22T02:34:54;6.13;;;5.73;;
4089;SDS011;2059;48.538;12.146;2023-06-22T02:39:55;6.50;;;6.10;;
4089;SDS011;2059;48.538;12.146;2023-06-22T02:44:58;5.50;;;5.17;;
4089;SDS011;2059;48.538;12.146;2023-06-22T02:50:00;3.83;;;3.00;;
4089;SDS011;2059;48.538;12.146;2023-06-22T02:55:02;3.73;;;3.47;;
4089;SDS011;2059;48.538;12.146;2023-06-22T03:00:07;4.87;;;4.47;;
4089;SDS011;2059;48.538;12.146;2023-06-22T03:05:16;4.07;;;3.67;;
4089;SDS011;2059;48.538;12.146;2023-06-22T03:10:19;4.20;;;3.60;;
4089;SDS011;2059;48.538;12.146;2023-06-22T03:15:22;4.30;;;3.90;;
4089;SDS011;2059;48.538;12.146;2023-06-22T03:20:25;4.90;;;4.40;;
4089;SDS011;2059;48.538;12.146;2023-06-22T03:25:34;6.23;;;5.43;;
4089;SDS011;2059;48.538;12.146;2023-06-22T03:30:38;4.50;;;4.10;;
4089;SDS011;2059;48.538;12.146;2023-06-22T03:35:39;5.60;;;5.10;;
4089;SDS011;2059;48.538;12.146;2023-06-22T03:40:42;7.20;;;5.57;;
4089;SDS011;2059;48.538;12.146;2023-06-22T03:45:45;10.83;;;9.40;;
4089;SDS011;2059;48.538;12.146;2023-06-22T03:50:47;8.47;;;6.40;;
4089;SDS011;2059;48.538;12.146;2023-06-22T03:55:49;5.73;;;5.17;;
4089;SDS011;2059;48.538;12.146;2023-06-22T04:00:53;7.93;;;5.37;;
4089;SDS011;2059;48.538;12.146;2023-06-22T04:05:55;4.40;;;4.00;;
4089;SDS011;2059;48.538;12.146;2023-06-22T04:10:59;5.20;;;3.73;;
4089;SDS011;2059;48.538;12.146;2023-06-22T04:16:13;4.63;;;3.83;;
4089;SDS011;2059;48.538;12.146;2023-06-22T04:21:15;4.07;;;3.77;;
4089;SDS011;2059;48.538;12.146;2023-06-22T04:26:19;6.23;;;3.90;;
4089;SDS011;2059;48.538;12.146;2023-06-22T04:31:22;4.33;;;4.03;;
4089;SDS011;2059;48.538;12.146;2023-06-22T04:36:33;5.30;;;3.77;;
4089;SDS011;2059;48.538;12.146;2023-06-22T04:41:38;4.00;;;3.60;;
4089;SDS011;2059;48.538;12.146;2023-06-22T04:46:44;5.00;;;4.17;;
4089;SDS011;2059;48.538;12.146;2023-06-22T04:51:46;4.40;;;4.10;;
4089;SDS011;2059;48.538;12.146;2023-06-22T04:56:48;4.53;;;4.13;;
4089;SDS011;2059;48.538;12.146;2023-06-22T05:01:58;3.60;;;3.30;;
4089;SDS011;2059;48.538;12.146;2023-06-22T05:07:01;6.93;;;3.70;;
4089;SDS011;2059;48.538;12.146;2023-06-22T05:12:04;4.03;;;3.73;;
4089;SDS011;2059;48.538;12.146;2023-06-22T05:17:09;4.13;;;3.60;;
4089;SDS011;2059;48.538;12.146;2023-06-22T05:22:13;4.17;;;3.87;;
4089;SDS011;2059;48.538;12.146;2023-06-22T05:27:15;3.80;;;3.50;;
4089;SDS011;2059;48.538;12.146;2023-06-22T05:32:19;4.30;;;3.90;;
4089;SDS011;2059;48.538;12.146;2023-06-22T05:37:20;4.30;;;3.90;;
4089;SDS011;2059;48.538;12.146;2023-06-22T05:42:22;4.40;;;4.00;;
4089;SDS011;2059;48.538;12.146;2023-06-22T05:47:26;4.20;;;3.80;;
4089;SDS011;2059;48.538;12.146;2023-06-22T05:52:28;5.33;;;4.40;;
4089;SDS011;2059;48.538;12.146;2023-06-22T05:57:30;4.40;;;4.00;;
4089;SDS011;2059;48.538;12.146;2023-06-22T06:02:33;4.67;;;4.30;;
4089;SDS011;2059;48.538;12.146;2023-06-22T06:07:35;4.63;;;4.20;;
4089;SDS011;2059;48.538;12.146;2023-06-22T06:12:37;3.90;;;3.50;;
4089;SDS011;2059;48.538;12.146;2023-06-22T06:17:46;3.93;;;3.63;;
4089;SDS011;2059;48.538;12.146;2023-06-22T06:22:48;3.73;;;3.40;;
4089;SDS011;2059;48.538;12.146;2023-06-22T06:27:51;3.47;;;3.27;;
4089;SDS011;2059;48.538;12.146;2023-06-22T06:32:55;4.13;;;3.80;;
4089;SDS011;2059;48.538;12.146;2023-06-22T06:37:57;5.03;;;4.73;;
4089;SDS011;2059;48.538;12.146;2023-06-22T06:42:59;6.47;;;6.00;;
4089;SDS011;2059;48.538;12.146;2023-06-22T06:48:02;7.10;;;6.60;;
4089;SDS011;2059;48.538;12.146;2023-06-22T06:53:04;4.10;;;3.80;;
4089;SDS011;2059;48.538;12.146;2023-06-22T06:58:06;4.03;;;3.57;;
4089;SDS011;2059;48.538;12.146;2023-06-22T07:03:11;4.03;;;3.80;;
4089;SDS011;2059;48.538;12.146;2023-06-22T07:08:13;7.87;;;7.40;;
4089;SDS011;2059;48.538;12.146;2023-06-22T07:13:14;4.10;;;3.70;;
4089;SDS011;2059;48.538;12.146;2023-06-22T07:18:17;4.67;;;4.37;;
4089;SDS011;2059;48.538;12.146;2023-06-22T07:23:19;5.33;;;5.03;;
4089;SDS011;2059;48.538;12.146;2023-06-22T07:28:21;4.13;;;3.93;;
4089;SDS011;2059;48.538;12.146;2023-06-22T07:33:24;4.17;;;3.97;;
4089;SDS011;2059;48.538;12.146;2023-06-22T07:38:27;4.10;;;3.90;;
4089;SDS011;2059;48.538;12.146;2023-06-22T07:43:29;5.20;;;4.70;;
4089;SDS011;2059;48.538;12.146;2023-06-22T07:48:36;4.90;;;4.57;;
4089;SDS011;2059;48.538;12.146;2023-06-22T07:53:39;4.40;;;4.20;;
4089;SDS011;2059;48.538;12.146;2023-06-22T07:58:41;4.23;;;3.90;;
4089;SDS011;2059;48.538;12.146;2023-06-22T08:03:44;4.10;;;3.87;;
4089;SDS011;2059;48.538;12.146;2023-06-22T08:08:46;4.43;;;4.23;;
4089;SDS011;2059;48.538;12.146;2023-06-22T08:13:49;5.70;;;4.30;;
4089;SDS011;2059;48.538;12.146;2023-06-22T08:18:52;5.07;;;4.77;;
4089;SDS011;2059;48.538;12.146;2023-06-22T08:23:54;5.10;;;4.90;;
4089;SDS011;2059;48.538;12.146;2023-06-22T08:28:56;4.17;;;3.90;;
4089;SDS011;2059;48.538;12.146;2023-06-22T08:33:59;4.30;;;4.10;;
4089;SDS011;2059;48.538;12.146;2023-06-22T08:39:01;4.00;;;3.80;;
4089;SDS011;2059;48.538;12.146;2023-06-22T08:44:03;4.97;;;4.67;;
4089;SDS011;2059;48.538;12.146;2023-06-22T08:49:06;4.47;;;4.27;;
4089;SDS011;2059;48.538;12.146;2023-06-22T08:54:10;6.10;;;5.80;;
4089;SDS011;2059;48.538;12.146;2023-06-22T08:59:12;5.70;;;4.90;;
4089;SDS011;2059;48.538;12.146;2023-06-22T09:04:15;6.40;;;6.10;;
4089;SDS011;2059;48.538;12.146;2023-06-22T09:09:17;7.17;;;6.80;;
4089;SDS011;2059;48.538;12.146;2023-06-22T09:14:19;7.00;;;6.70;;
4089;SDS011;2059;48.538;12.146;2023-06-22T09:19:22;5.47;;;5.17;;
4089;SDS011;2059;48.538;12.146;2023-06-22T09:24:24;6.13;;;5.83;;
4089;SDS011;2059;48.538;12.146;2023-06-22T09:29:26;5.33;;;5.13;;
4089;SDS011;2059;48.538;12.146;2023-06-22T09:34:29;6.20;;;5.80;;
4089;SDS011;2059;48.538;12.146;2023-06-22T09:39:31;5.60;;;5.30;;
4089;SDS011;2059;48.538;12.146;2023-06-22T09:44:33;7.37;;;6.97;;
4089;SDS011;2059;48.538;12.146;2023-06-22T09:49:36;7.47;;;7.07;;
4089;SDS011;2059;48.538;12.146;2023-06-22T09:54:38;6.47;;;5.97;;
4089;SDS011;2059;48.538;12.146;2023-06-22T09:59:39;6.27;;;5.70;;
4089;SDS011;2059;48.538;12.146;2023-06-22T10:04:43;6.30;;;6.00;;
4089;SDS011;2059;48.538;12.146;2023-06-22T10:09:45;6.40;;;6.10;;
4089;SDS011;2059;48.538;12.146;2023-06-22T10:14:47;7.10;;;6.67;;
4089;SDS011;2059;48.538;12.146;2023-06-22T10:19:50;6.50;;;6.10;;
4089;SDS011;2059;48.538;12.146;2023-06-22T10:24:51;7.47;;;7.07;;
4089;SDS011;2059;48.538;12.146;2023-06-22T10:29:53;6.20;;;5.90;;
4089;SDS011;2059;48.538;12.146;2023-06-22T10:34:56;6.97;;;6.57;;
4089;SDS011;2059;48.538;12.146;2023-06-22T10:39:58;6.07;;;5.77;;
4089;SDS011;2059;48.538;12.146;2023-06-22T10:45:00;6.13;;;5.83;;
4089;SDS011;2059;48.538;12.146;2023-06-22T10:50:04;5.43;;;5.13;;
4089;SDS011;2059;48.538;12.146;2023-06-22T10:55:07;7.60;;;7.17;;
4089;SDS011;2059;48.538;12.146;2023-06-22T11:00:10;6.33;;;6.03;;
4089;SDS011;2059;48.538;12.146;2023-06-22T11:05:14;6.30;;;6.00;;
4089;SDS011;2059;48.538;12.146;2023-06-22T11:10:16;7.17;;;6.77;;
4089;SDS011;2059;48.538;12.146;2023-06-22T11:15:18;5.93;;;5.63;;
4089;SDS011;2059;48.538;12.146;2023-06-22T11:20:21;7.03;;;6.43;;
4089;SDS011;2059;48.538;12.146;2023-06-22T11:25:23;6.60;;;6.30;;
4089;SDS011;2059;48.538;12.146;2023-06-22T11:30:25;6.73;;;6.37;;
4089;SDS011;2059;48.538;12.146;2023-06-22T11:35:28;7.50;;;7.17;;
4089;SDS011;2059;48.538;12.146;2023-06-22T11:40:30;7.17;;;6.87;;
4089;SDS011;2059;48.538;12.146;2023-06-22T11:45:32;6.40;;;6.10;;
4089;SDS011;2059;48.538;12.146;2023-06-22T11:50:35;6.93;;;6.53;;
4089;SDS011;2059;48.538;12.146;2023-06-22T11:55:37;7.20;;;6.83;;
4089;SDS011;2059;48.538;12.146;2023-06-22T12:00:39;6.53;;;6.20;;
4089;SDS011;2059;48.538;12.146;2023-06-22T12:05:43;6.47;;;6.17;;
4089;SDS011;2059;48.538;12.146;2023-06-22T12:10:44;7.13;;;6.67;;
4089;SDS011;2059;48.538;12.146;2023-06-22T12:15:46;6.83;;;6.43;;
4089;SDS011;2059;48.538;12.146;2023-06-22T12:20:49;6.50;;;6.20;;
4089;SDS011;2059;48.538;12.146;2023-06-22T12:25:51;7.10;;;6.80;;
4089;SDS011;2059;48.538;12.146;2023-06-22T12:30:53;7.70;;;7.30;;
4089;SDS011;2059;48.538;12.146;2023-06-22T12:35:56;7.40;;;7.00;;
4089;SDS011;2059;48.538;12.146;2023-06-22T12:40:58;7.13;;;6.80;;
4089;SDS011;2059;48.538;12.146;2023-06-22T12:46:00;6.03;;;5.73;;
4089;SDS011;2059;48.538;12.146;2023-06-22T12:51:03;6.40;;;6.00;;
4089;SDS011;2059;48.538;12.146;2023-06-22T12:56:04;8.07;;;7.47;;
4089;SDS011;2059;48.538;12.146;2023-06-22T13:01:06;7.73;;;7.33;;
4089;SDS011;2059;48.538;12.146;2023-06-22T13:06:09;8.13;;;7.63;;
4089;SDS011;2059;48.538;12.146;2023-06-22T13:11:11;8.10;;;7.60;;
4089;SDS011;2059;48.538;12.146;2023-06-22T13:16:13;7.83;;;7.40;;
4089;SDS011;2059;48.538;12.146;2023-06-22T13:21:16;7.63;;;7.23;;
4089;SDS011;2059;48.538;12.146;2023-06-22T13:26:18;7.17;;;6.87;;
4089;SDS011;2059;48.538;12.146;2023-06-22T13:31:19;7.80;;;7.47;;
4089;SDS011;2059;48.538;12.146;2023-06-22T13:36:23;7.43;;;7.03;;
4089;SDS011;2059;48.538;12.146;2023-06-22T13:41:24;6.93;;;6.63;;
4089;SDS011;2059;48.538;12.146;2023-06-22T13:46:27;8.37;;;7.87;;
4089;SDS011;2059;48.538;12.146;2023-06-22T13:51:30;7.80;;;7.40;;
4089;SDS011;2059;48.538;12.146;2023-06-22T13:56:32;8.00;;;7.37;;
4089;SDS011;2059;48.538;12.146;2023-06-22T14:01:34;8.40;;;7.90;;
4089;SDS011;2059;48.538;12.146;2023-06-22T14:06:37;8.93;;;8.13;;
4089;SDS011;2059;48.538;12.146;2023-06-22T14:11:39;7.77;;;7.37;;
4089;SDS011;2059;48.538;12.146;2023-06-22T14:16:41;7.70;;;7.30;;
4089;SDS011;2059;48.538;12.146;2023-06-22T14:21:44;8.40;;;8.00;;
4089;SDS011;2059;48.538;12.146;2023-06-22T14:26:45;7.83;;;7.43;;
4089;SDS011;2059;48.538;12.146;2023-06-22T14:31:47;7.97;;;7.53;;
4089;SDS011;2059;48.538;12.146;2023-06-22T14:36:51;7.67;;;6.93;;
4089;SDS011;2059;48.538;12.146;2023-06-22T14:41:52;7.40;;;7.10;;
4089;SDS011;2059;48.538;12.146;2023-06-22T14:46:54;7.10;;;6.80;;
4089;SDS011;2059;48.538;12.146;2023-06-22T14:51:57;7.27;;;6.77;;
4089;SDS011;2059;48.538;12.146;2023-06-22T14:56:59;7.10;;;6.70;;
4089;SDS011;2059;48.538;12.146;2023-06-22T15:02:01;7.00;;;6.60;;
4089;SDS011;2059;48.538;12.146;2023-06-22T15:07:04;7.40;;;6.90;;
4089;SDS011;2059;48.538;12.146;2023-06-22T15:12:06;6.17;;;5.87;;
4089;SDS011;2059;48.538;12.146;2023-06-22T15:17:11;6.37;;;6.07;;
4089;SDS011;2059;48.538;12.146;2023-06-22T15:22:15;7.20;;;6.70;;
4089;SDS011;2059;48.538;12.146;2023-06-22T15:27:19;6.43;;;6.13;;
4089;SDS011;2059;48.538;12.146;2023-06-22T15:32:21;6.20;;;5.90;;
4089;SDS011;2059;48.538;12.146;2023-06-22T15:37:24;6.07;;;5.70;;
4089;SDS011;2059;48.538;12.146;2023-06-22T15:42:26;5.93;;;5.63;;
4089;SDS011;2059;48.538;12.146;2023-06-22T15:47:28;6.30;;;6.00;;
4089;SDS011;2059;48.538;12.146;2023-06-22T15:52:31;6.40;;;6.10;;
4089;SDS011;2059;48.538;12.146;2023-06-22T15:57:33;6.73;;;6.33;;
4089;SDS011;2059;48.538;12.146;2023-06-22T16:02:37;6.20;;;5.90;;
4089;SDS011;2059;48.538;12.146;2023-06-22T16:07:40;6.63;;;6.17;;
4089;SDS011;2059;48.538;12.146;2023-06-22T16:12:42;6.43;;;6.00;;
4089;SDS011;2059;48.538;12.146;2023-06-22T16:17:44;5.60;;;5.30;;
4089;SDS011;2059;48.538;12.146;2023-06-22T16:22:48;5.73;;;5.43;;
4089;SDS011;2059;48.538;12.146;2023-06-22T16:27:50;5.50;;;5.30;;
4089;SDS011;2059;48.538;12.146;2023-06-22T16:32:52;4.93;;;4.63;;
4089;SDS011;2059;48.538;12.146;2023-06-22T16:37:56;5.00;;;4.80;;
4089;SDS011;2059;48.538;12.146;2023-06-22T16:42:57;5.20;;;4.90;;
4089;SDS011;2059;48.538;12.146;2023-06-22T16:47:59;5.17;;;4.97;;
4089;SDS011;2059;48.538;12.146;2023-06-22T16:53:02;5.10;;;4.90;;
4089;SDS011;2059;48.538;12.146;2023-06-22T16:58:04;5.03;;;4.83;;
4089;SDS011;2059;48.538;12.146;2023-06-22T17:03:06;5.23;;;5.03;;
4089;SDS011;2059;48.538;12.146;2023-06-22T17:08:13;4.80;;;4.60;;
4089;SDS011;2059;48.538;12.146;2023-06-22T17:13:18;5.20;;;5.00;;
4089;SDS011;2059;48.538;12.146;2023-06-22T17:18:19;6.50;;;6.20;;
4089;SDS011;2059;48.538;12.146;2023-06-22T17:23:26;6.30;;;6.00;;
4089;SDS011;2059;48.538;12.146;2023-06-22T17:33:48;3.93;;;3.73;;
4089;SDS011;2059;48.538;12.146;2023-06-22T17:38:52;5.83;;;5.43;;
4089;SDS011;2059;48.538;12.146;2023-06-22T17:43:59;6.50;;;6.20;;
4089;SDS011;2059;48.538;12.146;2023-06-22T17:49:01;4.67;;;4.27;;
4089;SDS011;2059;48.538;12.146;2023-06-22T17:54:07;5.93;;;5.63;;
4089;SDS011;2059;48.538;12.146;2023-06-22T17:59:09;6.97;;;6.57;;
4089;SDS011;2059;48.538;12.146;2023-06-22T18:04:12;7.37;;;6.70;;
4089;SDS011;2059;48.538;12.146;2023-06-22T18:09:16;6.93;;;6.57;;
4089;SDS011;2059;48.538;12.146;2023-06-22T18:14:18;5.20;;;4.83;;
4089;SDS011;2059;48.538;12.146;2023-06-22T18:19:21;4.97;;;4.67;;
4089;SDS011;2059;48.538;12.146;2023-06-22T18:24:25;5.27;;;4.90;;
4089;SDS011;2059;48.538;12.146;2023-06-22T18:29:29;5.97;;;5.60;;
4089;SDS011;2059;48.538;12.146;2023-06-22T18:34:31;7.20;;;6.80;;
4089;SDS011;2059;48.538;12.146;2023-06-22T18:39:34;5.60;;;4.70;;
4089;SDS011;2059;48.538;12.146;2023-06-22T18:44:39;7.30;;;6.60;;
4089;SDS011;2059;48.538;12.146;2023-06-22T18:49:45;4.50;;;4.10;;
4089;SDS011;2059;48.538;12.146;2023-06-22T18:54:49;4.50;;;4.20;;
4089;SDS011;2059;48.538;12.146;2023-06-22T18:59:57;4.20;;;3.90;;
4089;SDS011;2059;48.538;12.146;2023-06-22T19:05:07;3.93;;;3.73;;
4089;SDS011;2059;48.538;12.146;2023-06-22T19:10:24;6.80;;;5.70;;
4089;SDS011;2059;48.538;12.146;2023-06-22T19:15:29;4.80;;;4.50;;
4089;SDS011;2059;48.538;12.146;2023-06-22T19:20:33;5.57;;;5.27;;
4089;SDS011;2059;48.538;12.146;2023-06-22T19:25:36;3.87;;;3.67;;
4089;SDS011;2059;48.538;12.146;2023-06-22T19:30:46;4.47;;;4.17;;
4089;SDS011;2059;48.538;12.146;2023-06-22T19:35:48;5.87;;;5.47;;
4089;SDS011;2059;48.538;12.146;2023-06-22T19:40:52;5.27;;;4.87;;
4089;SDS011;2059;48.538;12.146;2023-06-22T19:45:55;5.40;;;5.00;;
4089;SDS011;2059;48.538;12.146;2023-06-22T19:51:01;4.47;;;4.17;;
4089;SDS011;2059;48.538;12.146;2023-06-22T19:56:06;6.77;;;6.27;;
4089;SDS011;2059;48.538;12.146;2023-06-22T20:01:08;5.30;;;5.00;;
4089;SDS011;2059;48.538;12.146;2023-06-22T20:06:10;5.33;;;4.83;;
4089;SDS011;2059;48.538;12.146;2023-06-22T20:11:15;5.63;;;5.23;;
4089;SDS011;2059;48.538;12.146;2023-06-22T20:16:25;4.23;;;4.00;;
4089;SDS011;2059;48.538;12.146;2023-06-22T20:21:27;5.10;;;4.10;;
4089;SDS011;2059;48.538;12.146;2023-06-22T20:26:37;6.10;;;5.73;;
4089;SDS011;2059;48.538;12.146;2023-06-22T20:31:39;3.60;;;3.43;;
4089;SDS011;2059;48.538;12.146;2023-06-22T20:36:41;6.97;;;6.57;;
4089;SDS011;2059;48.538;12.146;2023-06-22T20:41:45;6.43;;;6.10;;
4089;SDS011;2059;48.538;12.146;2023-06-22T20:46:47;3.57;;;3.37;;
4089;SDS011;2059;48.538;12.146;2023-06-22T20:51:48;5.10;;;3.83;;
4089;SDS011;2059;48.538;12.146;2023-06-22T20:56:52;4.40;;;4.17;;
4089;SDS011;2059;48.538;12.146;2023-06-22T21:01:53;3.80;;;3.60;;
4089;SDS011;2059;48.538;12.146;2023-06-22T21:06:56;3.40;;;3.30;;
4089;SDS011;2059;48.538;12.146;2023-06-22T21:11:59;5.10;;;3.30;;
4089;SDS011;2059;48.538;12.146;2023-06-22T21:17:01;5.27;;;4.97;;
4089;SDS011;2059;48.538;12.146;2023-06-22T21:22:03;5.03;;;4.83;;
4089;SDS011;2059;48.538;12.146;2023-06-22T21:27:06;3.43;;;3.20;;
4089;SDS011;2059;48.538;12.146;2023-06-22T21:32:08;4.80;;;4.60;;
4089;SDS011;2059;48.538;12.146;2023-06-22T21:37:10;3.77;;;3.57;;
4089;SDS011;2059;48.538;12.146;2023-06-22T21:42:13;3.50;;;3.30;;
4089;SDS011;2059;48.538;12.146;2023-06-22T21:47:15;2.63;;;2.53;;
4089;SDS011;2059;48.538;12.146;2023-06-22T21:52:17;3.57;;;3.30;;
4089;SDS011;2059;48.538;12.146;2023-06-22T21:57:20;5.87;;;5.57;;
4089;SDS011;2059;48.538;12.146;2023-06-22T22:02:26;3.20;;;3.00;;
4089;SDS011;2059;48.538;12.146;2023-06-22T22:07:28;3.37;;;3.17;;
4089;SDS011;2059;48.538;12.146;2023-06-22T22:12:31;5.13;;;4.73;;
4089;SDS011;2059;48.538;12.146;2023-06-22T22:17:34;4.87;;;4.60;;
4089;SDS011;2059;48.538;12.146;2023-06-22T22:22:36;4.90;;;4.70;;
4089;SDS011;2059;48.538;12.146;2023-06-22T22:27:39;6.93;;;4.40;;
4089;SDS011;2059;48.538;12.146;2023-06-22T22:32:41;3.60;;;3.30;;
4089;SDS011;2059;48.538;12.146;2023-06-22T22:37:43;5.77;;;5.40;;
4089;SDS011;2059;48.538;12.146;2023-06-22T22:42:46;5.13;;;4.83;;
4089;SDS011;2059;48.538;12.146;2023-06-22T22:47:48;3.07;;;2.90;;
4089;SDS011;2059;48.538;12.146;2023-06-22T22:52:50;4.57;;;4.20;;
4089;SDS011;2059;48.538;12.146;2023-06-22T22:57:53;3.10;;;2.90;;
4089;SDS011;2059;48.538;12.146;2023-06-22T23:02:55;3.10;;;2.87;;
4089;SDS011;2059;48.538;12.146;2023-06-22T23:07:58;2.87;;;2.77;;
4089;SDS011;2059;48.538;12.146;2023-06-22T23:13:02;2.67;;;2.57;;
4089;SDS011;2059;48.538;12.146;2023-06-22T23:18:03;3.00;;;2.87;;
4089;SDS011;2059;48.538;12.146;2023-06-22T23:23:08;2.97;;;2.87;;
4089;SDS011;2059;48.538;12.146;2023-06-22T23:28:11;3.20;;;3.00;;
4089;SDS011;2059;48.538;12.146;2023-06-22T23:33:13;3.23;;;3.03;;
4089;SDS011;2059;48.538;12.146;2023-06-22T23:38:15;3.30;;;2.93;;
4089;SDS011;2059;48.538;12.146;2023-06-22T23:43:18;3.43;;;3.10;;
4089;SDS011;2059;48.538;12.146;2023-06-22T23:48:20;4.27;;;3.07;;
4089;SDS011;2059;48.538;12.146;2023-06-22T23:53:22;3.13;;;2.93;;
4089;SDS011;2059;48.538;12.146;2023-06-22T23:58:25;3.07;;;2.87;;
